createdAt,value
2018-05-09T00:01:30.075Z,48.37
2018-05-09T00:04:02.623Z,48.32
2018-05-09T00:06:35.193Z,48.66
2018-05-09T00:09:07.744Z,48.77
2018-05-09T00:11:40.307Z,48.75
2018-05-09T00:14:12.844Z,49.02
2018-05-09T00:16:45.398Z,49.10
2018-05-09T00:19:17.919Z,48.85
2018-05-09T00:21:50.488Z,49.32
2018-05-09T00:24:23.024Z,48.97
2018-05-09T00:26:55.598Z,49.33
2018-05-09T00:29:28.193Z,49.13
2018-05-09T00:32:00.750Z,49.28
2018-05-09T00:34:33.314Z,49.59
2018-05-09T00:37:05.881Z,49.75
2018-05-09T00:39:38.424Z,49.75
2018-05-09T00:42:10.986Z,50.26
2018-05-09T00:44:43.564Z,50.34
2018-05-09T00:47:16.107Z,50.31
2018-05-09T00:49:48.696Z,50.37
2018-05-09T00:52:21.278Z,50.08
2018-05-09T00:54:53.889Z,50.03
2018-05-09T00:57:26.440Z,49.84
2018-05-09T00:59:59.022Z,50.59
2018-05-09T01:02:31.585Z,50.62
2018-05-09T01:05:04.145Z,51.15
2018-05-09T01:07:36.681Z,51.19
2018-05-09T01:10:09.264Z,51.19
2018-05-09T01:12:41.813Z,50.83
2018-05-09T01:15:14.363Z,51.10
2018-05-09T01:17:46.891Z,51.30
2018-05-09T01:20:19.432Z,50.97
2018-05-09T01:22:51.965Z,50.81
2018-05-09T01:25:24.616Z,50.90
2018-05-09T01:27:57.161Z,50.80
2018-05-09T01:30:29.713Z,51.13
2018-05-09T01:33:02.247Z,51.13
2018-05-09T01:35:34.811Z,51.29
2018-05-09T01:38:07.377Z,51.45
2018-05-09T01:40:39.952Z,51.53
2018-05-09T01:43:12.507Z,51.39
2018-05-09T01:45:45.055Z,51.53
2018-05-09T01:48:17.596Z,51.31
2018-05-09T01:50:50.143Z,51.11
2018-05-09T01:53:22.689Z,51.41
2018-05-09T01:55:55.240Z,51.40
2018-05-09T01:58:27.793Z,52.08
2018-05-09T02:01:00.345Z,52.41
2018-05-09T02:03:32.868Z,52.02
2018-05-09T02:06:05.532Z,51.76
2018-05-09T02:08:37.986Z,52.20
2018-05-09T02:11:10.551Z,52.12
2018-05-09T02:13:43.088Z,51.93
2018-05-09T02:16:15.654Z,52.14
2018-05-09T02:18:48.195Z,52.26
2018-05-09T02:21:20.765Z,52.75
2018-05-09T02:23:53.305Z,52.86
2018-05-09T02:26:25.948Z,53.42
2018-05-09T02:28:58.483Z,53.57
2018-05-09T02:31:31.072Z,53.76
2018-05-09T02:34:03.614Z,53.33
2018-05-09T02:36:36.190Z,53.13
2018-05-09T02:39:08.768Z,53.26
2018-05-09T02:41:41.314Z,53.51
2018-05-09T02:44:13.854Z,53.99
2018-05-09T02:46:46.410Z,54.17
2018-05-09T02:49:18.948Z,54.08
2018-05-09T02:51:51.511Z,53.74
2018-05-09T02:54:24.060Z,53.99
2018-05-09T02:56:56.623Z,54.76
2018-05-09T02:59:29.161Z,54.82
2018-05-09T03:02:01.726Z,54.58
2018-05-09T03:04:34.272Z,54.80
2018-05-09T03:07:06.850Z,55.05
2018-05-09T03:09:39.376Z,55.33
2018-05-09T03:12:11.943Z,55.10
2018-05-09T03:14:44.480Z,54.74
2018-05-09T03:17:17.033Z,54.77
2018-05-09T03:19:49.557Z,55.24
2018-05-09T03:22:22.126Z,55.28
2018-05-09T03:24:54.706Z,55.46
2018-05-09T03:27:27.248Z,55.91
2018-05-09T03:29:59.850Z,55.60
2018-05-09T03:32:32.384Z,55.61
2018-05-09T03:35:04.921Z,54.91
2018-05-09T03:37:37.482Z,54.52
2018-05-09T03:40:10.006Z,54.59
2018-05-09T03:42:42.642Z,54.67
2018-05-09T03:45:15.171Z,54.57
2018-05-09T03:47:47.735Z,54.50
2018-05-09T03:50:20.271Z,54.57
2018-05-09T03:52:52.824Z,55.09
2018-05-09T03:55:25.369Z,54.99
2018-05-09T03:57:57.916Z,54.76
2018-05-09T04:00:30.524Z,54.61
2018-05-09T04:03:14.987Z,54.66
2018-05-09T04:05:59.407Z,55.34
2018-05-09T04:08:43.935Z,55.23
2018-05-09T04:11:16.516Z,54.70
2018-05-09T04:13:49.046Z,54.44
2018-05-09T04:16:21.595Z,54.17
2018-05-09T04:18:54.824Z,53.86
2018-05-09T04:21:27.372Z,54.75
2018-05-09T04:23:59.905Z,54.65
2018-05-09T04:26:32.460Z,54.67
2018-05-09T04:29:05.027Z,54.61
2018-05-09T04:31:37.572Z,54.35
2018-05-09T04:34:10.115Z,54.93
2018-05-09T04:36:42.688Z,54.54
2018-05-09T04:39:15.228Z,53.89
2018-05-09T04:41:47.795Z,52.30
2018-05-09T04:44:20.311Z,51.42
2018-05-09T04:46:52.887Z,51.18
2018-05-09T04:49:25.420Z,52.32
2018-05-09T04:51:58.012Z,52.87
2018-05-09T04:54:30.570Z,52.64
2018-05-09T04:57:03.127Z,53.03
2018-05-09T04:59:35.688Z,52.28
2018-05-09T05:02:08.241Z,51.66
2018-05-09T05:04:40.782Z,51.39
2018-05-09T05:07:13.365Z,50.65
2018-05-09T05:09:45.909Z,51.06
2018-05-09T05:12:18.455Z,50.75
2018-05-09T05:14:51.009Z,51.12
2018-05-09T05:17:23.565Z,50.51
2018-05-09T05:19:56.129Z,51.20
2018-05-09T05:22:28.717Z,51.25
2018-05-09T05:25:01.277Z,51.57
2018-05-09T05:27:33.849Z,49.92
2018-05-09T05:30:06.400Z,49.33
2018-05-09T05:32:39.013Z,50.32
2018-05-09T05:35:11.507Z,49.46
2018-05-09T05:37:44.078Z,49.10
2018-05-09T05:40:16.618Z,48.83
2018-05-09T05:42:49.177Z,48.49
2018-05-09T05:45:21.729Z,48.55
2018-05-09T05:47:54.362Z,49.12
2018-05-09T05:50:26.915Z,46.61
2018-05-09T05:52:59.466Z,48.04
2018-05-09T05:55:32.002Z,46.71
2018-05-09T05:58:04.577Z,45.37
2018-05-09T06:00:37.150Z,44.78
2018-05-09T06:03:09.718Z,44.57
2018-05-09T06:05:42.256Z,44.50
2018-05-09T06:08:14.832Z,44.78
2018-05-09T06:10:47.385Z,45.21
2018-05-09T06:13:19.959Z,43.41
2018-05-09T06:15:52.513Z,43.42
2018-05-09T06:18:25.090Z,43.23
2018-05-09T06:20:57.641Z,42.73
2018-05-09T06:23:30.201Z,41.45
2018-05-09T06:26:02.757Z,42.19
2018-05-09T06:28:35.333Z,41.73
2018-05-09T06:31:07.878Z,41.53
2018-05-09T06:33:40.442Z,41.54
2018-05-09T06:36:13.001Z,40.12
2018-05-09T06:38:45.618Z,41.13
2018-05-09T06:41:18.167Z,42.19
2018-05-09T06:43:50.761Z,40.02
2018-05-09T06:46:23.293Z,40.81
2018-05-09T06:48:55.879Z,41.08
2018-05-09T06:51:28.426Z,39.59
2018-05-09T06:54:00.990Z,39.88
2018-05-09T06:56:33.568Z,40.10
2018-05-09T06:59:06.152Z,38.73
2018-05-09T07:01:38.718Z,38.95
2018-05-09T07:04:11.287Z,38.45
2018-05-09T07:06:44.170Z,38.72
2018-05-09T07:09:16.440Z,38.60
2018-05-09T07:11:48.992Z,37.14
2018-05-09T07:14:21.558Z,38.51
2018-05-09T07:16:54.107Z,37.62
2018-05-09T07:19:26.670Z,36.32
2018-05-09T07:21:59.220Z,37.27
2018-05-09T07:24:31.830Z,36.26
2018-05-09T07:27:04.389Z,36.64
2018-05-09T07:29:36.973Z,35.66
2018-05-09T07:32:09.543Z,35.54
2018-05-09T07:34:42.105Z,34.94
2018-05-09T07:37:14.700Z,37.13
2018-05-09T07:39:47.290Z,34.64
2018-05-09T07:42:19.876Z,35.15
2018-05-09T07:44:52.443Z,34.88
2018-05-09T07:47:25.003Z,35.61
2018-05-09T07:49:57.536Z,36.12
2018-05-09T07:52:30.094Z,34.83
2018-05-09T07:55:02.638Z,34.65
2018-05-09T07:57:35.205Z,33.89
2018-05-09T08:00:07.799Z,34.50
2018-05-09T08:02:40.374Z,35.24
2018-05-09T08:05:12.919Z,36.15
2018-05-09T08:07:45.500Z,32.18
2018-05-09T08:10:18.052Z,33.88
2018-05-09T08:12:50.729Z,33.20
2018-05-09T08:15:23.213Z,33.31
2018-05-09T08:17:55.783Z,33.80
2018-05-09T08:20:28.364Z,32.81
2018-05-09T08:23:00.956Z,31.67
2018-05-09T08:25:33.531Z,31.28
2018-05-09T08:28:06.137Z,32.86
2018-05-09T08:30:38.851Z,31.95
2018-05-09T08:33:11.798Z,31.23
2018-05-09T08:35:44.354Z,32.08
2018-05-09T08:38:17.021Z,32.02
2018-05-09T08:40:49.530Z,32.72
2018-05-09T08:43:22.192Z,32.80
2018-05-09T08:45:54.707Z,32.16
2018-05-09T08:48:27.306Z,31.71
2018-05-09T08:50:59.855Z,30.28
2018-05-09T08:53:32.426Z,30.51
2018-05-09T08:56:04.965Z,30.29
2018-05-09T08:58:37.540Z,30.99
2018-05-09T09:01:10.074Z,30.00
2018-05-09T09:03:42.662Z,30.47
2018-05-09T09:06:15.204Z,30.22
2018-05-09T09:08:47.789Z,29.92
2018-05-09T09:11:20.336Z,29.03
2018-05-09T09:13:52.913Z,28.95
2018-05-09T09:16:25.480Z,29.75
2018-05-09T09:18:58.060Z,29.84
2018-05-09T09:21:30.625Z,28.93
2018-05-09T09:24:03.221Z,28.83
2018-05-09T09:26:35.778Z,28.56
2018-05-09T09:29:08.533Z,27.91
2018-05-09T09:31:40.964Z,28.79
2018-05-09T09:34:13.550Z,28.27
2018-05-09T09:36:46.123Z,29.72
2018-05-09T09:39:18.678Z,28.33
2018-05-09T09:41:51.417Z,28.81
2018-05-09T09:44:24.163Z,28.31
2018-05-09T09:46:56.762Z,28.50
2018-05-09T09:49:29.343Z,27.06
2018-05-09T09:52:01.921Z,29.16
2018-05-09T09:54:35.476Z,27.30
2018-05-09T09:57:08.119Z,27.73
2018-05-09T09:59:40.705Z,28.10
2018-05-09T10:02:13.295Z,28.01
2018-05-09T10:04:45.885Z,26.63
2018-05-09T10:07:18.439Z,26.16
2018-05-09T10:09:53.642Z,27.76
2018-05-09T10:12:26.213Z,26.91
2018-05-09T10:14:58.809Z,27.82
2018-05-09T10:17:31.381Z,27.51
2018-05-09T10:20:03.963Z,26.45
2018-05-09T10:22:36.519Z,27.28
2018-05-09T10:25:09.122Z,26.77
2018-05-09T10:27:41.703Z,27.94
2018-05-09T10:30:14.282Z,27.05
2018-05-09T10:32:46.868Z,26.69
2018-05-09T10:35:19.450Z,25.54
2018-05-09T10:37:52.210Z,26.68
2018-05-09T10:40:24.800Z,27.52
2018-05-09T10:47:49.556Z,26.00
2018-05-09T10:50:22.075Z,26.09
2018-05-09T10:52:54.584Z,25.85
2018-05-09T10:55:27.115Z,25.84
2018-05-09T10:57:59.611Z,25.83
2018-05-09T11:00:32.872Z,25.11
2018-05-09T11:03:05.370Z,25.87
2018-05-09T11:05:37.901Z,26.57
2018-05-09T11:08:10.403Z,26.11
2018-05-09T11:10:42.927Z,27.40
2018-05-09T11:13:15.476Z,27.04
2018-05-09T11:15:48.004Z,25.78
2018-05-09T11:18:20.507Z,26.65
2018-05-09T11:20:53.033Z,25.49
2018-05-09T11:23:25.546Z,24.74
2018-05-09T11:25:58.079Z,26.39
2018-05-09T11:28:30.641Z,25.53
2018-05-09T11:31:03.644Z,25.54
2018-05-09T11:33:36.166Z,25.58
2018-05-09T11:36:08.664Z,25.17
2018-05-09T11:38:41.179Z,25.46
2018-05-09T11:41:13.688Z,25.85
2018-05-09T11:43:46.219Z,26.24
2018-05-09T11:46:18.714Z,24.47
2018-05-09T11:48:51.235Z,23.94
2018-05-09T11:51:23.730Z,24.80
2018-05-09T11:53:56.268Z,24.32
2018-05-09T11:56:28.780Z,22.58
2018-05-09T11:59:01.299Z,22.19
2018-05-09T12:01:34.828Z,21.90
2018-05-09T12:04:07.343Z,22.15
2018-05-09T12:06:39.861Z,22.81
2018-05-09T12:09:12.396Z,22.59
2018-05-09T12:11:44.892Z,22.56
2018-05-09T12:14:17.417Z,24.13
2018-05-09T12:16:49.923Z,21.84
2018-05-09T12:19:22.447Z,20.92
2018-05-09T12:21:54.986Z,22.21
2018-05-09T12:24:27.596Z,22.24
2018-05-09T12:27:00.097Z,22.22
2018-05-09T12:29:33.109Z,20.81
2018-05-09T12:32:05.617Z,22.29
2018-05-09T12:34:38.142Z,22.71
2018-05-09T12:37:10.656Z,21.47
2018-05-09T12:39:43.196Z,20.93
2018-05-09T12:42:15.701Z,20.79
2018-05-09T12:44:48.224Z,20.90
2018-05-09T12:47:20.729Z,20.96
2018-05-09T12:49:53.257Z,21.89
2018-05-09T12:52:25.746Z,19.97
2018-05-09T12:54:58.264Z,21.51
2018-05-09T12:57:30.767Z,22.15
2018-05-09T13:00:04.000Z,23.01
2018-05-09T13:02:36.497Z,24.25
2018-05-09T13:05:09.016Z,24.07
2018-05-09T13:07:41.520Z,23.97
2018-05-09T13:10:14.038Z,21.33
2018-05-09T13:12:46.536Z,20.73
2018-05-09T13:15:19.057Z,20.01
2018-05-09T13:17:51.555Z,21.69
2018-05-09T13:20:24.094Z,22.04
2018-05-09T13:22:56.590Z,22.20
2018-05-09T13:25:29.099Z,22.51
2018-05-09T13:28:01.883Z,22.27
2018-05-09T13:30:34.405Z,22.67
2018-05-09T13:33:06.909Z,22.36
2018-05-09T13:35:39.427Z,22.83
2018-05-09T13:38:11.945Z,24.08
2018-05-09T13:40:44.456Z,24.14
2018-05-09T13:43:16.959Z,22.12
2018-05-09T13:45:49.499Z,23.76
2018-05-09T13:48:21.989Z,22.98
2018-05-09T13:50:54.494Z,22.60
2018-05-09T13:53:26.987Z,24.55
2018-05-09T13:55:59.505Z,24.01
2018-05-09T13:58:31.995Z,24.66
2018-05-09T14:01:04.503Z,23.67
2018-05-09T14:03:37.026Z,23.42
2018-05-09T14:06:09.536Z,24.43
2018-05-09T14:08:42.025Z,24.31
2018-05-09T14:11:14.544Z,23.84
2018-05-09T14:13:47.048Z,23.72
2018-05-09T14:16:19.564Z,24.54
2018-05-09T14:18:52.056Z,24.10
2018-05-09T14:21:24.628Z,24.30
2018-05-09T14:23:57.146Z,24.60
2018-05-09T14:26:29.683Z,23.18
2018-05-09T14:29:02.740Z,23.70
2018-05-09T14:31:35.296Z,24.04
2018-05-09T14:34:07.771Z,24.58
2018-05-09T14:36:40.280Z,24.44
2018-05-09T14:39:12.783Z,24.31
2018-05-09T14:41:45.307Z,24.31
2018-05-09T14:44:17.832Z,24.13
2018-05-09T14:46:50.362Z,24.30
2018-05-09T14:49:22.871Z,23.21
2018-05-09T14:51:55.376Z,24.92
2018-05-09T14:54:27.878Z,24.25
2018-05-09T14:57:00.414Z,24.51
2018-05-09T14:59:32.941Z,24.75
2018-05-09T15:02:06.249Z,24.55
2018-05-09T15:04:38.743Z,24.53
2018-05-09T15:07:11.243Z,24.43
2018-05-09T15:09:43.743Z,24.02
2018-05-09T15:12:16.312Z,24.72
2018-05-09T15:14:48.843Z,24.46
2018-05-09T15:17:21.339Z,24.35
2018-05-09T15:19:53.906Z,24.18
2018-05-09T15:22:26.403Z,24.82
2018-05-09T15:24:58.920Z,24.34
2018-05-09T15:27:31.414Z,25.69
2018-05-09T15:30:03.981Z,24.72
2018-05-09T15:32:36.476Z,25.89
2018-05-09T15:35:09.317Z,24.79
2018-05-09T15:37:41.808Z,25.76
2018-05-09T15:40:14.337Z,25.27
2018-05-09T15:42:46.846Z,26.09
2018-05-09T15:45:19.366Z,25.91
2018-05-09T15:47:51.873Z,26.33
2018-05-09T15:50:24.399Z,25.18
2018-05-09T15:52:56.909Z,25.79
2018-05-09T15:55:29.427Z,27.00
2018-05-09T15:58:01.929Z,26.76
2018-05-09T16:00:34.452Z,26.22
2018-05-09T16:03:06.958Z,26.17
2018-05-09T16:05:39.481Z,26.98
2018-05-09T16:08:11.987Z,26.29
2018-05-09T16:10:44.505Z,25.75
2018-05-09T16:13:17.016Z,26.12
2018-05-09T16:15:49.541Z,25.84
2018-05-09T16:18:22.046Z,26.26
2018-05-09T16:20:54.577Z,25.67
2018-05-09T16:23:27.108Z,26.95
2018-05-09T16:25:59.632Z,25.53
2018-05-09T16:28:32.765Z,26.25
2018-05-09T16:31:05.279Z,25.92
2018-05-09T16:33:37.781Z,26.09
2018-05-09T16:36:10.313Z,25.85
2018-05-09T16:38:42.828Z,25.83
2018-05-09T16:41:15.364Z,25.73
2018-05-09T16:43:47.969Z,26.43
2018-05-09T16:46:20.503Z,27.14
2018-05-09T16:48:53.004Z,26.47
2018-05-09T16:51:25.521Z,27.51
2018-05-09T16:54:01.014Z,26.82
2018-05-09T16:56:33.564Z,26.43
2018-05-09T16:59:06.087Z,27.19
2018-05-09T17:01:38.667Z,27.67
2018-05-09T17:04:11.197Z,27.63
2018-05-09T17:06:43.770Z,26.98
2018-05-09T17:09:16.293Z,27.21
2018-05-09T17:11:48.857Z,27.29
2018-05-09T17:14:21.398Z,27.23
2018-05-09T17:16:53.967Z,26.65
2018-05-09T17:19:26.503Z,26.53
2018-05-09T17:22:16.548Z,26.46
2018-05-09T17:24:49.115Z,26.63
2018-05-09T17:27:21.656Z,26.57
2018-05-09T17:29:54.215Z,26.57
2018-05-09T17:32:26.772Z,26.25
2018-05-09T17:34:59.303Z,26.97
2018-05-09T17:37:31.861Z,27.05
2018-05-09T17:40:04.384Z,27.19
2018-05-09T17:42:37.033Z,27.33
2018-05-09T17:45:09.522Z,27.57
2018-05-09T17:47:42.064Z,27.97
2018-05-09T17:50:14.634Z,27.98
2018-05-09T17:52:47.167Z,28.83
2018-05-09T17:55:19.719Z,28.78
2018-05-09T17:57:52.280Z,29.23
2018-05-09T18:00:24.848Z,29.28
2018-05-09T18:02:57.394Z,29.81
2018-05-09T18:05:29.934Z,30.29
2018-05-09T18:08:02.475Z,30.45
2018-05-09T18:10:35.039Z,31.29
2018-05-09T18:13:07.577Z,30.72
2018-05-09T18:15:40.124Z,31.25
2018-05-09T18:18:12.648Z,31.28
2018-05-09T18:20:45.201Z,31.37
2018-05-09T18:23:17.720Z,31.63
2018-05-09T18:25:50.262Z,32.29
2018-05-09T18:28:22.775Z,32.11
2018-05-09T18:30:55.317Z,32.13
2018-05-09T18:33:27.863Z,31.73
2018-05-09T18:36:00.397Z,31.65
2018-05-09T18:38:33.688Z,31.37
2018-05-09T18:41:06.249Z,31.23
2018-05-09T18:43:38.771Z,31.53
2018-05-09T18:46:11.390Z,32.04
2018-05-09T18:48:43.870Z,31.79
2018-05-09T18:51:16.413Z,31.91
2018-05-09T18:53:48.952Z,32.12
2018-05-09T18:56:21.480Z,32.31
2018-05-09T18:58:54.021Z,32.46
2018-05-09T19:01:26.577Z,32.96
2018-05-09T19:03:59.107Z,33.44
2018-05-09T19:06:32.013Z,33.26
2018-05-09T19:09:04.564Z,33.50
2018-05-09T19:11:37.125Z,34.17
2018-05-09T19:14:09.671Z,34.29
2018-05-09T19:16:42.208Z,35.20
2018-05-09T19:19:14.757Z,35.39
2018-05-09T19:21:47.326Z,35.79
2018-05-09T19:24:19.854Z,35.55
2018-05-09T19:26:52.389Z,35.90
2018-05-09T19:29:24.926Z,36.59
2018-05-09T19:31:57.470Z,36.57
2018-05-09T19:34:30.023Z,37.27
2018-05-09T19:37:02.567Z,37.87
2018-05-09T19:39:35.120Z,38.00
2018-05-09T19:42:07.682Z,38.16
2018-05-09T19:44:40.205Z,38.09
2018-05-09T19:47:12.748Z,37.92
2018-05-09T19:49:45.350Z,38.10
2018-05-09T19:52:17.894Z,38.35
2018-05-09T19:54:50.445Z,38.90
2018-05-09T19:57:23.010Z,39.12
2018-05-09T19:59:55.570Z,39.16
2018-05-09T20:02:28.121Z,39.71
2018-05-09T20:05:00.688Z,39.86
2018-05-09T20:07:33.243Z,40.04
2018-05-09T20:10:05.782Z,40.12
2018-05-09T20:12:38.311Z,40.12
2018-05-09T20:15:10.843Z,40.43
2018-05-09T20:17:43.385Z,41.29
2018-05-09T20:20:15.968Z,40.96
2018-05-09T20:22:48.525Z,41.39
2018-05-09T20:25:21.060Z,41.02
2018-05-09T20:27:53.623Z,41.42
2018-05-09T20:30:31.810Z,41.65
2018-05-09T20:33:04.375Z,41.54
2018-05-09T20:35:36.902Z,41.70
2018-05-09T20:38:09.450Z,41.95
2018-05-09T20:40:41.985Z,42.48
2018-05-09T20:43:14.537Z,42.05
2018-05-09T20:45:47.070Z,43.16
2018-05-09T20:48:19.629Z,43.09
2018-05-09T20:50:52.157Z,43.90
2018-05-09T20:53:24.697Z,44.19
2018-05-09T20:55:57.216Z,44.24
2018-05-09T20:58:29.769Z,44.49
2018-05-09T21:01:14.032Z,44.31
2018-05-09T21:03:46.614Z,44.73
2018-05-09T21:06:19.151Z,44.65
2018-05-09T21:08:51.747Z,45.10
2018-05-09T21:11:24.287Z,45.93
2018-05-09T21:13:57.802Z,45.67
2018-05-09T21:16:30.310Z,45.82
2018-05-09T21:19:02.851Z,46.05
2018-05-09T21:21:35.389Z,46.70
2018-05-09T21:24:07.937Z,46.57
2018-05-09T21:26:40.460Z,46.96
2018-05-09T21:29:13.015Z,46.95
2018-05-09T21:31:45.551Z,47.14
2018-05-09T21:34:18.089Z,47.24
2018-05-09T21:36:50.611Z,47.70
2018-05-09T21:39:23.161Z,47.67
2018-05-09T21:41:55.689Z,47.71
2018-05-09T21:44:28.256Z,47.33
2018-05-09T21:47:00.791Z,47.24
2018-05-09T21:49:33.346Z,47.43
2018-05-09T21:52:05.875Z,46.77
2018-05-09T21:54:38.423Z,47.07
2018-05-09T21:57:10.953Z,47.24
2018-05-09T21:59:43.501Z,47.45
2018-05-09T22:02:16.032Z,47.64
2018-05-09T22:04:48.574Z,47.62
2018-05-09T22:07:21.105Z,47.51
2018-05-09T22:09:53.665Z,47.49
2018-05-09T22:12:26.189Z,47.60
2018-05-09T22:14:58.725Z,47.50
2018-05-09T22:17:33.785Z,47.80
2018-05-09T22:20:06.341Z,48.06
2018-05-09T22:22:38.894Z,47.59
2018-05-09T22:25:11.414Z,48.00
2018-05-09T22:27:43.954Z,47.89
2018-05-09T22:30:16.501Z,47.87
2018-05-09T22:32:49.053Z,48.09
2018-05-09T22:35:21.573Z,48.31
2018-05-09T22:37:54.198Z,48.09
2018-05-09T22:40:26.758Z,48.58
2018-05-09T22:42:59.339Z,48.62
2018-05-09T22:45:32.304Z,49.49
2018-05-09T22:48:04.887Z,49.75
2018-05-09T22:50:37.443Z,49.80
2018-05-09T22:53:10.056Z,49.67
2018-05-09T22:55:42.624Z,49.74
2018-05-09T22:58:15.209Z,50.19
2018-05-09T23:00:47.740Z,50.11
2018-05-09T23:03:20.285Z,50.08
2018-05-09T23:05:52.829Z,49.98
2018-05-09T23:08:25.392Z,50.02
2018-05-09T23:10:57.915Z,50.86
2018-05-09T23:13:30.465Z,50.35
2018-05-09T23:16:02.993Z,50.76
2018-05-09T23:18:35.557Z,50.60
2018-05-09T23:21:08.084Z,50.79
2018-05-09T23:23:40.625Z,51.63
2018-05-09T23:26:13.153Z,51.24
2018-05-09T23:28:45.695Z,51.00
2018-05-09T23:31:18.209Z,50.92
2018-05-09T23:33:50.757Z,51.00
2018-05-09T23:36:23.281Z,51.09
2018-05-09T23:38:55.856Z,50.89
2018-05-09T23:41:28.383Z,50.94
2018-05-09T23:44:00.969Z,50.66
2018-05-09T23:46:33.485Z,51.36
2018-05-09T23:51:44.931Z,51.10
2018-05-09T23:54:17.476Z,51.76
2018-05-09T23:56:50.001Z,51.56
2018-05-09T23:59:22.566Z,51.52
